createdAt,value
2022-10-26T00:01:23.157Z,97421.97
2022-10-26T00:03:52.243Z,97421.97
2022-10-26T00:06:22.493Z,97401.75
2022-10-26T00:08:51.815Z,97410.69
2022-10-26T00:11:21.196Z,97420.44
2022-10-26T00:13:51.711Z,97420.28
2022-10-26T00:16:23.164Z,97407.31
2022-10-26T00:18:52.155Z,97394.94
2022-10-26T00:21:21.024Z,97396.72
2022-10-26T00:23:49.761Z,97395.03
2022-10-26T00:26:18.412Z,97394.22
2022-10-26T00:28:47.019Z,97409.13
2022-10-26T00:31:17.727Z,97411.09
2022-10-26T00:33:46.456Z,97419.03
2022-10-26T00:36:16.822Z,97411.22
2022-10-26T00:38:50.130Z,97401.47
2022-10-26T00:41:20.073Z,97399.78
2022-10-26T00:43:48.877Z,97391.84
2022-10-26T00:46:21.758Z,97383.22
2022-10-26T00:48:52.753Z,97387.53
2022-10-26T00:51:25.887Z,97365.66
2022-10-26T00:53:56.200Z,97375.41
2022-10-26T00:56:25.399Z,97389.50
2022-10-26T00:58:54.266Z,97393.13
2022-10-26T01:01:24.295Z,97378.22
2022-10-26T01:03:53.008Z,97375.56
2022-10-26T01:06:22.510Z,97373.88
2022-10-26T01:08:51.374Z,97365.09
2022-10-26T01:11:19.982Z,97344.06
2022-10-26T01:13:50.156Z,97360.78
2022-10-26T01:16:37.265Z,97363.44
2022-10-26T01:19:47.760Z,97357.31
2022-10-26T01:22:19.940Z,97368.88
2022-10-26T01:25:01.430Z,97368.06
2022-10-26T01:27:31.145Z,97373.34
2022-10-26T01:30:21.945Z,97384.09
2022-10-26T01:33:04.836Z,97386.75
2022-10-26T01:35:35.619Z,97385.91
2022-10-26T01:38:07.638Z,97407.09
2022-10-26T01:40:39.079Z,97407.09
2022-10-26T01:43:09.968Z,97414.38
2022-10-26T01:45:42.026Z,97423.16
2022-10-26T01:48:12.463Z,97424.97
2022-10-26T01:50:41.742Z,97423.28
2022-10-26T01:53:13.075Z,97421.63
2022-10-26T01:55:46.713Z,97418.13
2022-10-26T01:58:30.492Z,97405.88
2022-10-26T02:01:02.933Z,97394.44
2022-10-26T02:03:37.081Z,97398.91
2022-10-26T02:06:12.125Z,97389.28
2022-10-26T02:08:59.912Z,97382.19
2022-10-26T02:11:35.752Z,97384.97
2022-10-26T02:14:10.311Z,97393.75
2022-10-26T02:16:45.120Z,97391.25
2022-10-26T02:19:25.645Z,97394.72
2022-10-26T02:21:58.165Z,97391.25
2022-10-26T02:24:28.197Z,97385.25
2022-10-26T02:26:57.625Z,97389.59
2022-10-26T02:29:26.974Z,97385.25
2022-10-26T02:31:58.437Z,97379.97
2022-10-26T02:34:28.544Z,97385.25
2022-10-26T02:36:59.266Z,97380.94
2022-10-26T02:39:28.991Z,97379.28
2022-10-26T02:41:58.058Z,97380.13
2022-10-26T02:44:28.514Z,97376.63
2022-10-26T02:46:58.985Z,97380.25
2022-10-26T02:49:27.672Z,97383.88
2022-10-26T02:52:03.075Z,97368.00
2022-10-26T02:54:36.265Z,97370.66
2022-10-26T02:57:09.750Z,97377.75
2022-10-26T02:59:40.304Z,97374.41
2022-10-26T03:02:10.281Z,97384.88
2022-10-26T03:04:38.813Z,97384.19
2022-10-26T03:07:07.664Z,97396.59
2022-10-26T03:09:36.178Z,97398.41
2022-10-26T03:12:05.138Z,97394.91
2022-10-26T03:14:33.751Z,97394.91
2022-10-26T03:17:02.371Z,97394.09
2022-10-26T03:19:32.341Z,97398.53
2022-10-26T03:22:00.915Z,97396.88
2022-10-26T03:24:29.888Z,97388.09
2022-10-26T03:27:01.222Z,97385.59
2022-10-26T03:29:31.127Z,97389.06
2022-10-26T03:31:59.695Z,97382.81
2022-10-26T03:34:28.321Z,97382.94
2022-10-26T03:36:58.293Z,97375.16
2022-10-26T03:39:26.872Z,97376.97
2022-10-26T03:41:56.451Z,97369.84
2022-10-26T03:44:25.049Z,97383.09
2022-10-26T03:46:53.721Z,97392.00
2022-10-26T03:49:22.284Z,97395.50
2022-10-26T03:51:50.894Z,97408.03
2022-10-26T03:54:20.922Z,97398.16
2022-10-26T03:56:52.678Z,97400.09
2022-10-26T03:59:23.895Z,97401.91
2022-10-26T04:01:55.379Z,97402.75
2022-10-26T04:04:26.524Z,97407.22
2022-10-26T04:06:55.193Z,97399.41
2022-10-26T04:09:25.181Z,97394.13
2022-10-26T04:11:53.874Z,97386.16
2022-10-26T04:14:22.438Z,97378.22
2022-10-26T04:16:51.128Z,97371.25
2022-10-26T04:19:19.778Z,97380.88
2022-10-26T04:21:48.448Z,97386.31
2022-10-26T04:24:16.999Z,97385.47
2022-10-26T04:26:46.918Z,97382.00
2022-10-26T04:29:15.479Z,97393.44
2022-10-26T04:34:17.732Z,97390.94
2022-10-26T04:36:46.455Z,97397.88
2022-10-26T04:39:15.172Z,97396.22
2022-10-26T04:41:43.834Z,97405.97
2022-10-26T04:44:13.835Z,97414.75
2022-10-26T04:46:42.440Z,97412.09
2022-10-26T04:49:11.240Z,97418.25
2022-10-26T04:51:40.002Z,97409.47
2022-10-26T04:54:09.072Z,97413.91
2022-10-26T04:56:38.157Z,97416.72
2022-10-26T04:59:07.181Z,97417.53
2022-10-26T05:01:37.308Z,97418.38
2022-10-26T05:04:06.231Z,97425.63
2022-10-26T05:06:34.819Z,97414.22
2022-10-26T05:09:03.712Z,97423.97
2022-10-26T05:11:32.308Z,97429.25
2022-10-26T05:14:00.907Z,97446.97
2022-10-26T05:16:29.630Z,97471.63
2022-10-26T05:18:59.723Z,97480.53
2022-10-26T05:21:28.486Z,97477.06
2022-10-26T05:23:57.046Z,97491.31
2022-10-26T05:26:26.322Z,97498.41
2022-10-26T05:28:55.052Z,97515.13
2022-10-26T05:31:23.720Z,97517.09
2022-10-26T05:33:52.992Z,97508.31
2022-10-26T05:36:22.939Z,97505.66
2022-10-26T05:38:51.631Z,97497.72
2022-10-26T05:41:20.478Z,97533.13
2022-10-26T05:43:49.590Z,97524.34
2022-10-26T05:46:18.275Z,97524.34
2022-10-26T05:48:46.789Z,97528.66
2022-10-26T05:51:16.048Z,97539.38
2022-10-26T05:53:45.977Z,97532.28
2022-10-26T05:56:19.263Z,97540.38
2022-10-26T05:58:48.495Z,97532.28
2022-10-26T06:01:26.497Z,97502.31
2022-10-26T06:04:08.419Z,97501.50
2022-10-26T06:06:41.127Z,97498.00
2022-10-26T06:09:12.651Z,97482.94
2022-10-26T06:11:41.853Z,97501.50
2022-10-26T06:14:11.310Z,97460.94
2022-10-26T06:16:50.107Z,97424.03
2022-10-26T06:19:27.863Z,97409.94
2022-10-26T06:22:05.839Z,97406.47
2022-10-26T06:24:40.662Z,97432.78
2022-10-26T06:27:27.878Z,97447.69
2022-10-26T06:30:00.160Z,97459.13
2022-10-26T06:32:29.390Z,97462.75
2022-10-26T06:35:07.294Z,97460.94
2022-10-26T06:37:39.029Z,97461.63
2022-10-26T06:40:11.617Z,97476.81
2022-10-26T06:42:40.808Z,97498.00
2022-10-26T06:47:47.802Z,97516.69
2022-10-26T06:50:28.940Z,97519.19
2022-10-26T06:53:06.558Z,97516.53
2022-10-26T06:55:41.885Z,97529.78
2022-10-26T06:58:13.848Z,97520.16
2022-10-26T07:00:43.020Z,97516.69
2022-10-26T07:03:11.682Z,97506.91
2022-10-26T07:05:40.383Z,97510.41
2022-10-26T07:08:09.064Z,97516.53
2022-10-26T07:10:39.780Z,97519.19
2022-10-26T07:13:08.583Z,97523.66
2022-10-26T07:15:37.865Z,97505.13
2022-10-26T07:18:07.745Z,97504.28
2022-10-26T07:20:38.086Z,97502.47
2022-10-26T07:23:08.003Z,97507.63
2022-10-26T07:25:40.300Z,97513.06
2022-10-26T07:28:10.350Z,97518.22
2022-10-26T07:30:39.875Z,97517.22
2022-10-26T07:33:10.435Z,97530.59
2022-10-26T07:35:38.962Z,97535.75
2022-10-26T07:38:08.251Z,97546.34
2022-10-26T07:40:38.831Z,97552.63
2022-10-26T07:43:07.581Z,97555.28
2022-10-26T07:45:37.343Z,97549.97
2022-10-26T07:48:06.191Z,97552.50
2022-10-26T07:50:34.644Z,97547.19
2022-10-26T07:53:03.190Z,97557.78
2022-10-26T07:55:31.696Z,97558.63
2022-10-26T07:58:01.982Z,97561.25
2022-10-26T08:00:31.009Z,97561.25
2022-10-26T08:02:59.576Z,97551.50
2022-10-26T08:05:28.163Z,97561.13
2022-10-26T08:07:56.709Z,97558.31
2022-10-26T08:10:25.329Z,97561.97
2022-10-26T08:12:54.107Z,97559.16
2022-10-26T08:15:24.036Z,97566.25
2022-10-26T08:17:52.674Z,97556.66
2022-10-26T08:20:21.359Z,97559.41
2022-10-26T08:22:50.327Z,97559.56
2022-10-26T08:25:21.409Z,97564.44
2022-10-26T08:27:50.594Z,97566.38
2022-10-26T08:30:19.192Z,97563.72
2022-10-26T08:32:49.453Z,97564.72
2022-10-26T08:35:18.344Z,97566.81
2022-10-26T08:37:46.841Z,97573.06
2022-10-26T08:40:17.387Z,97568.75
2022-10-26T08:42:49.032Z,97568.91
2022-10-26T08:45:31.818Z,97561.09
2022-10-26T08:48:06.988Z,97573.34
2022-10-26T08:50:40.551Z,97582.28
2022-10-26T08:53:18.680Z,97573.34
2022-10-26T08:55:49.583Z,97569.03
2022-10-26T08:58:21.190Z,97574.19
2022-10-26T09:00:51.027Z,97574.19
2022-10-26T09:03:20.976Z,97574.06
2022-10-26T09:05:59.292Z,97584.66
2022-10-26T09:08:35.493Z,97578.50
2022-10-26T09:11:11.801Z,97583.66
2022-10-26T09:13:47.267Z,97576.56
2022-10-26T09:16:24.702Z,97580.88
2022-10-26T09:19:03.495Z,97586.19
2022-10-26T09:21:41.494Z,97591.47
2022-10-26T09:24:15.379Z,97590.34
2022-10-26T09:26:54.922Z,97586.03
2022-10-26T09:29:27.359Z,97588.53
2022-10-26T09:31:57.408Z,97581.44
2022-10-26T09:34:31.931Z,97581.44
2022-10-26T09:37:00.418Z,97593.69
2022-10-26T09:39:36.833Z,97591.06
2022-10-26T09:42:13.539Z,97595.22
2022-10-26T09:44:46.538Z,97595.09
2022-10-26T09:47:19.023Z,97591.47
2022-10-26T09:49:52.289Z,97592.16
2022-10-26T09:52:20.788Z,97585.88
2022-10-26T09:54:49.310Z,97592.16
2022-10-26T09:57:20.221Z,97589.22
2022-10-26T09:59:49.974Z,97604.44
2022-10-26T10:02:35.701Z,97604.97
2022-10-26T10:05:32.841Z,97598.16
2022-10-26T10:08:12.303Z,97610.69
2022-10-26T10:10:55.223Z,97610.69
2022-10-26T10:13:25.276Z,97618.78
2022-10-26T10:15:55.697Z,97619.63
2022-10-26T10:18:25.097Z,97619.75
2022-10-26T10:20:59.278Z,97618.78
2022-10-26T10:23:33.196Z,97623.25
2022-10-26T10:26:05.188Z,97623.25
2022-10-26T10:28:34.497Z,97627.72
2022-10-26T10:31:04.276Z,97628.69
2022-10-26T10:33:38.707Z,97621.44
2022-10-26T10:36:10.963Z,97619.75
2022-10-26T10:38:41.651Z,97624.94
2022-10-26T10:41:18.867Z,97617.94
2022-10-26T10:43:50.185Z,97618.78
2022-10-26T10:46:20.997Z,97624.09
2022-10-26T10:48:53.649Z,97620.31
2022-10-26T10:51:25.456Z,97624.63
2022-10-26T10:53:56.798Z,97629.09
2022-10-26T10:56:35.293Z,97629.81
2022-10-26T10:59:16.858Z,97634.25
2022-10-26T11:01:50.695Z,97634.97
2022-10-26T11:04:34.880Z,97638.44
2022-10-26T11:07:06.530Z,97634.69
2022-10-26T11:09:38.495Z,97640.53
2022-10-26T11:12:11.238Z,97634.25
2022-10-26T11:14:44.242Z,97647.22
2022-10-26T11:17:18.293Z,97651.53
2022-10-26T11:19:50.494Z,97651.53
2022-10-26T11:22:22.797Z,97642.75
2022-10-26T11:24:55.699Z,97649.72
2022-10-26T11:27:27.863Z,97648.75
2022-10-26T11:30:01.032Z,97639.97
2022-10-26T11:32:32.168Z,97641.78
2022-10-26T11:35:04.614Z,97653.06
2022-10-26T11:40:20.543Z,97645.81
2022-10-26T11:42:52.956Z,97644.16
2022-10-26T11:45:25.232Z,97657.28
2022-10-26T11:47:56.339Z,97654.50
2022-10-26T11:50:27.315Z,97655.34
2022-10-26T11:53:00.588Z,97644.72
2022-10-26T11:55:30.126Z,97652.53
2022-10-26T11:57:58.945Z,97653.38
2022-10-26T12:00:27.897Z,97663.84
2022-10-26T12:02:58.362Z,97657.56
2022-10-26T12:05:33.948Z,97668.03
2022-10-26T12:08:07.477Z,97662.88
2022-10-26T12:10:37.381Z,97663.69
2022-10-26T12:13:15.848Z,97666.06
2022-10-26T12:16:04.574Z,97676.38
2022-10-26T12:18:57.251Z,97672.91
2022-10-26T12:21:28.587Z,97677.09
2022-10-26T12:24:00.362Z,97675.28
2022-10-26T12:26:53.202Z,97678.75
2022-10-26T12:29:38.099Z,97676.09
2022-10-26T12:32:49.555Z,97669.78
2022-10-26T12:35:42.388Z,97666.16
2022-10-26T12:38:49.573Z,97664.34
2022-10-26T12:41:26.403Z,97673.84
2022-10-26T12:43:58.679Z,97675.38
2022-10-26T12:46:42.330Z,97674.53
2022-10-26T12:49:58.582Z,97681.50
2022-10-26T12:52:50.678Z,97688.63
2022-10-26T12:55:49.660Z,97693.78
2022-10-26T12:59:03.599Z,97691.00
2022-10-26T13:02:03.684Z,97691.81
2022-10-26T13:05:06.051Z,97696.16
2022-10-26T13:07:37.627Z,97690.84
2022-10-26T13:10:07.976Z,97689.88
2022-10-26T13:12:40.310Z,97688.19
2022-10-26T13:15:22.196Z,97687.22
2022-10-26T13:18:00.969Z,97684.56
2022-10-26T13:20:30.807Z,97691.53
2022-10-26T13:22:59.510Z,97693.22
2022-10-26T13:25:30.109Z,97692.38
2022-10-26T13:28:01.391Z,97696.69
2022-10-26T13:30:46.999Z,97697.53
2022-10-26T13:33:22.293Z,97694.75
2022-10-26T13:35:53.777Z,97710.38
2022-10-26T13:38:24.817Z,97704.09
2022-10-26T13:40:58.283Z,97697.13
2022-10-26T13:43:27.531Z,97701.28
2022-10-26T13:45:58.878Z,97716.22
2022-10-26T13:48:37.788Z,97705.63
2022-10-26T13:51:13.291Z,97710.63
2022-10-26T13:53:45.327Z,97708.81
2022-10-26T13:56:19.506Z,97714.13
2022-10-26T13:58:51.628Z,97710.34
2022-10-26T14:01:23.177Z,97724.31
2022-10-26T14:03:52.129Z,97726.81
2022-10-26T14:06:26.132Z,97722.06
2022-10-26T14:08:57.901Z,97719.53
2022-10-26T14:11:32.788Z,97719.41
2022-10-26T14:14:01.786Z,97718.56
2022-10-26T14:16:33.459Z,97728.19
2022-10-26T14:19:02.040Z,97728.34
2022-10-26T14:21:31.021Z,97729.16
2022-10-26T14:24:03.577Z,97723.88
2022-10-26T14:26:40.398Z,97724.69
2022-10-26T14:29:16.319Z,97724.69
2022-10-26T14:31:46.169Z,97730.97
2022-10-26T14:34:14.869Z,97735.47
2022-10-26T14:36:47.918Z,97740.91
2022-10-26T14:39:22.726Z,97740.06
2022-10-26T14:41:51.835Z,97746.22
2022-10-26T14:44:21.996Z,97743.69
2022-10-26T14:46:52.242Z,97745.38
2022-10-26T14:49:21.756Z,97739.09
2022-10-26T14:51:51.254Z,97741.03
2022-10-26T14:54:21.782Z,97748.72
2022-10-26T14:56:50.365Z,97751.22
2022-10-26T14:59:24.277Z,97749.28
2022-10-26T15:01:55.735Z,97753.47
2022-10-26T15:04:32.960Z,97763.09
2022-10-26T15:07:18.337Z,97759.47
2022-10-26T15:09:47.778Z,97757.78
2022-10-26T15:12:32.381Z,97760.44
2022-10-26T15:15:09.696Z,97762.09
2022-10-26T15:17:42.817Z,97767.13
2022-10-26T15:20:17.922Z,97773.41
2022-10-26T15:22:51.643Z,97773.56
2022-10-26T15:25:23.042Z,97772.72
2022-10-26T15:27:52.380Z,97767.41
2022-10-26T15:30:23.859Z,97772.72
2022-10-26T15:32:54.979Z,97773.69
2022-10-26T15:35:33.112Z,97778.88
2022-10-26T15:38:02.019Z,97776.34
2022-10-26T15:40:32.286Z,97772.72
2022-10-26T15:43:01.993Z,97779.00
2022-10-26T15:45:47.851Z,97772.72
2022-10-26T15:48:25.633Z,97778.03
2022-10-26T15:50:54.195Z,97783.34
2022-10-26T15:53:24.429Z,97790.47
2022-10-26T15:55:54.392Z,97783.34
2022-10-26T15:58:23.560Z,97792.28
2022-10-26T16:00:52.245Z,97788.78
2022-10-26T16:03:23.997Z,97796.59
2022-10-26T16:05:56.594Z,97805.41
2022-10-26T16:08:25.177Z,97805.41
2022-10-26T16:10:53.619Z,97800.09
2022-10-26T16:13:22.048Z,97805.41
2022-10-26T16:15:50.520Z,97812.53
2022-10-26T16:18:19.006Z,97810.72
2022-10-26T16:20:49.349Z,97812.38
2022-10-26T16:23:17.868Z,97815.03
2022-10-26T16:25:47.559Z,97816.84
2022-10-26T16:28:17.813Z,97818.66
2022-10-26T16:30:46.335Z,97822.16
2022-10-26T16:33:15.131Z,97818.53
2022-10-26T16:35:43.696Z,97828.31
2022-10-26T16:38:13.528Z,97826.47
2022-10-26T16:40:44.501Z,97830.13
2022-10-26T16:43:12.984Z,97828.31
2022-10-26T16:45:42.433Z,97828.31
2022-10-26T16:48:15.387Z,97830.97
2022-10-26T16:50:44.137Z,97833.59
2022-10-26T16:53:13.953Z,97840.72
2022-10-26T16:55:44.167Z,97840.72
2022-10-26T16:58:12.684Z,97840.72
2022-10-26T17:00:41.177Z,97839.75
2022-10-26T17:03:09.730Z,97844.22
2022-10-26T17:05:38.739Z,97843.38
2022-10-26T17:08:08.259Z,97854.00
2022-10-26T17:10:38.207Z,97857.50
2022-10-26T17:13:07.262Z,97865.44
2022-10-26T17:15:36.058Z,97863.78
2022-10-26T17:18:05.085Z,97867.25
2022-10-26T17:20:33.583Z,97870.75
2022-10-26T17:23:02.180Z,97873.41
2022-10-26T17:25:30.680Z,97879.69
2022-10-26T17:28:01.948Z,97880.53
2022-10-26T17:30:32.978Z,97880.53
2022-10-26T17:33:03.531Z,97893.81
2022-10-26T17:35:33.353Z,97891.16
2022-10-26T17:38:02.496Z,97896.44
2022-10-26T17:40:32.746Z,97900.78
2022-10-26T17:43:02.973Z,97901.75
2022-10-26T17:45:31.726Z,97912.38
2022-10-26T17:48:03.078Z,97902.75
2022-10-26T17:50:31.917Z,97916.00
2022-10-26T17:53:00.487Z,97919.50
2022-10-26T17:55:29.452Z,97916.84
2022-10-26T17:57:57.913Z,97915.03
2022-10-26T18:00:28.436Z,97923.81
2022-10-26T18:05:31.569Z,97922.16
2022-10-26T18:08:00.382Z,97924.81
2022-10-26T18:10:37.957Z,97928.44
2022-10-26T18:13:06.944Z,97932.75
2022-10-26T18:15:37.471Z,97939.88
2022-10-26T18:18:07.162Z,97937.22
2022-10-26T18:20:35.692Z,97946.03
2022-10-26T18:23:04.605Z,97947.84
2022-10-26T18:25:34.015Z,97947.84
2022-10-26T18:28:02.587Z,97952.31
2022-10-26T18:30:31.163Z,97951.47
2022-10-26T18:33:01.396Z,97956.78
2022-10-26T18:35:29.978Z,97957.63
2022-10-26T18:37:58.412Z,97960.41
2022-10-26T18:40:26.923Z,97972.84
2022-10-26T18:42:55.447Z,97968.38
2022-10-26T18:45:23.947Z,97965.72
2022-10-26T18:47:52.769Z,97971.03
2022-10-26T18:50:22.876Z,97974.66
2022-10-26T18:52:51.394Z,97972.97
2022-10-26T18:55:19.924Z,97978.28
2022-10-26T18:57:48.566Z,97972.13
2022-10-26T19:00:17.859Z,97972.13
2022-10-26T19:02:48.708Z,97969.50
2022-10-26T19:05:19.953Z,97985.41
2022-10-26T19:07:49.770Z,97979.25
2022-10-26T19:10:18.300Z,97981.91
2022-10-26T19:12:46.787Z,97985.53
2022-10-26T19:15:15.321Z,97990.00
2022-10-26T19:17:44.702Z,98000.63
2022-10-26T19:20:13.501Z,97990.16
2022-10-26T19:22:42.075Z,97996.16
2022-10-26T19:25:12.030Z,97999.78
2022-10-26T19:27:40.490Z,98003.41
2022-10-26T19:30:10.013Z,98011.38
2022-10-26T19:32:38.582Z,98007.03
2022-10-26T19:35:07.591Z,98007.88
2022-10-26T19:37:36.031Z,98015.97
2022-10-26T19:40:04.811Z,98018.63
2022-10-26T19:42:34.669Z,98013.31
2022-10-26T19:45:03.229Z,98014.31
2022-10-26T19:47:31.727Z,98022.25
2022-10-26T19:50:00.551Z,98023.22
2022-10-26T19:52:29.091Z,98019.75
2022-10-26T19:54:57.910Z,98032.16
2022-10-26T19:57:26.364Z,98025.19
2022-10-26T19:59:56.228Z,98026.03
2022-10-26T20:02:24.863Z,98032.31
2022-10-26T20:04:53.342Z,98031.31
2022-10-26T20:07:22.704Z,98032.31
2022-10-26T20:09:51.413Z,98040.41
2022-10-26T20:12:19.903Z,98035.94
2022-10-26T20:14:48.397Z,98038.59
2022-10-26T20:17:18.198Z,98039.56
2022-10-26T20:19:46.656Z,98036.06
2022-10-26T20:22:15.156Z,98040.53
2022-10-26T20:24:43.953Z,98049.31
2022-10-26T20:27:12.440Z,98040.53
2022-10-26T20:29:41.002Z,98043.31
2022-10-26T20:32:10.686Z,98046.94
2022-10-26T20:34:42.629Z,98046.94
2022-10-26T20:37:14.535Z,98046.94
2022-10-26T20:39:43.558Z,98047.91
2022-10-26T20:42:21.355Z,98045.25
2022-10-26T20:44:50.942Z,98055.88
2022-10-26T20:47:20.249Z,98048.06
2022-10-26T20:49:50.918Z,98052.53
2022-10-26T20:52:24.091Z,98049.03
2022-10-26T20:54:56.734Z,98057.81
2022-10-26T20:57:30.368Z,98056.16
2022-10-26T21:00:04.097Z,98066.75
2022-10-26T21:02:33.840Z,98059.78
2022-10-26T21:05:04.764Z,98065.91
2022-10-26T21:07:34.531Z,98069.53
2022-10-26T21:10:03.319Z,98072.31
2022-10-26T21:12:32.109Z,98067.88
2022-10-26T21:15:00.887Z,98067.88
2022-10-26T21:17:29.386Z,98075.94
2022-10-26T21:19:58.064Z,98074.13
2022-10-26T21:22:28.901Z,98079.56
2022-10-26T21:24:57.635Z,98076.94
2022-10-26T21:27:26.201Z,98077.91
2022-10-26T21:29:54.852Z,98072.59
2022-10-26T21:32:23.415Z,98067.41
2022-10-26T21:34:52.423Z,98067.56
2022-10-26T21:37:20.911Z,98071.03
2022-10-26T21:39:50.739Z,98073.69
2022-10-26T21:42:19.430Z,98077.31
2022-10-26T21:44:48.119Z,98072.03
2022-10-26T21:47:16.966Z,98081.78
2022-10-26T21:49:45.481Z,98084.44
2022-10-26T21:52:14.580Z,98085.41
2022-10-26T21:54:43.464Z,98090.00
2022-10-26T21:57:13.542Z,98083.72
2022-10-26T21:59:42.360Z,98084.72
2022-10-26T22:02:10.941Z,98086.50
2022-10-26T22:04:39.681Z,98090.97
2022-10-26T22:07:08.624Z,98082.31
2022-10-26T22:09:44.888Z,98088.47
2022-10-26T22:12:27.392Z,98095.56
2022-10-26T22:14:56.046Z,98092.09
2022-10-26T22:17:24.862Z,98096.56
2022-10-26T22:19:53.751Z,98090.41
2022-10-26T22:22:22.642Z,98088.72
2022-10-26T22:24:51.293Z,98088.84
2022-10-26T22:27:20.333Z,98088.84
2022-10-26T22:29:50.353Z,98091.50
2022-10-26T22:32:18.983Z,98096.81
2022-10-26T22:34:47.739Z,98089.84
2022-10-26T22:37:16.391Z,98082.84
2022-10-26T22:39:45.131Z,98082.97
2022-10-26T22:42:13.756Z,98087.44
2022-10-26T22:44:42.413Z,98098.88
2022-10-26T22:47:12.403Z,98095.41
2022-10-26T22:49:41.096Z,98092.75
2022-10-26T22:52:09.687Z,98093.72
2022-10-26T22:54:38.875Z,98100.84
2022-10-26T22:57:07.515Z,98094.69
2022-10-26T22:59:36.054Z,98096.50
2022-10-26T23:02:04.688Z,98090.34
2022-10-26T23:04:34.634Z,98091.19
2022-10-26T23:07:03.233Z,98097.47
2022-10-26T23:09:31.634Z,98099.28
2022-10-26T23:12:00.199Z,98100.28
2022-10-26T23:14:28.677Z,98091.50
2022-10-26T23:16:57.153Z,98102.94
2022-10-26T23:19:25.629Z,98103.06
2022-10-26T23:21:55.453Z,98112.69
2022-10-26T23:24:23.951Z,98112.00
2022-10-26T23:26:52.585Z,98108.50
2022-10-26T23:29:21.109Z,98114.66
2022-10-26T23:31:49.596Z,98114.78
2022-10-26T23:34:18.068Z,98121.88
2022-10-26T23:36:47.972Z,98121.88
2022-10-26T23:39:17.785Z,98121.03
2022-10-26T23:41:46.257Z,98129.00
2022-10-26T23:44:14.747Z,98118.53
2022-10-26T23:46:43.219Z,98114.91
2022-10-26T23:49:11.663Z,98105.41
2022-10-26T23:51:40.131Z,98110.69
2022-10-26T23:54:08.913Z,98107.34
2022-10-26T23:56:38.713Z,98103.72
2022-10-26T23:59:08.627Z,98113.47
